Daihatsumaru — JD2764 — position and weather

sailwx.info

Track history (hours):
 
Tides and Currents Weather Stations Pressure Air Temp Water Temp Dewpoint Dewpoint Depression Visibility Wind Speed Wind Dir Waves Ship Positions

Daihatsumaru

Last reported at 2017-Nov-20 00:17 UTC. Time now 2017-Nov-23 05:46 UTC.
Position N 34°41' E 135°23'.

Length 106 m; draft 4.5 m.

Type: Cargo ship. MMSI: 431000701.

Date/timePositionNaut miles runAvg speedWind from/ knotsBaromVisibWave heightAir tempDewpointWater temp
2017-Nov-20 00:17N 34°41' E 135°23'0 0.0
2017-Nov-19 23:53N 34°41' E 135°23'0 0.0
2017-Nov-19 23:29N 34°41' E 135°23'0 0.0
2017-Nov-19 22:53N 34°41' E 135°23'0 0.0
2017-Nov-19 22:23N 34°41' E 135°23'0 0.0
2017-Nov-19 21:59N 34°41' E 135°23'0 0.1
2017-Nov-19 21:29N 34°41' E 135°23'0 0.1
2017-Nov-19 20:59N 34°41' E 135°23'0 0.0
2017-Nov-19 20:23N 34°41' E 135°23'0 0.0
2017-Nov-19 19:59N 34°41' E 135°23'0 0.0
2017-Nov-19 19:29N 34°41' E 135°23'0 0.0
2017-Nov-19 18:59N 34°41' E 135°23'0 0.1
2017-Nov-19 18:23N 34°41' E 135°23'0 0.1
2017-Nov-19 17:59N 34°41' E 135°23'0 0.0
2017-Nov-19 17:29N 34°41' E 135°23'0 0.0
2017-Nov-19 16:59N 34°41' E 135°23'0 0.0
2017-Nov-19 16:29N 34°41' E 135°23'0 0.0
2017-Nov-19 15:59N 34°41' E 135°23'0 0.0
2017-Nov-19 15:29N 34°41' E 135°23'0 0.0
2017-Nov-19 14:59N 34°41' E 135°23'0 0.0
2017-Nov-19 14:23N 34°41' E 135°23'0 0.0
2017-Nov-19 13:59N 34°41' E 135°23'0 0.0
2017-Nov-19 13:29N 34°41' E 135°23'0 0.0
2017-Nov-19 12:17N 34°41' E 135°23'0 0.0
2017-Nov-19 11:59N 34°41' E 135°23'0 0.0
2017-Nov-19 11:29N 34°41' E 135°23'0 0.0
2017-Nov-19 10:59N 34°41' E 135°23'0 0.0
2017-Nov-19 10:17N 34°41' E 135°23'0 0.0
2017-Nov-19 09:59N 34°41' E 135°23'0 0.0
2017-Nov-19 09:29N 34°41' E 135°23'0 0.0
2017-Nov-19 08:59N 34°41' E 135°23'0 0.0
2017-Nov-19 07:29N 34°41' E 135°23'0 0.0
2017-Nov-19 06:59N 34°41' E 135°23'0 0.0
2017-Nov-19 06:29N 34°41' E 135°23'0 0.0
2017-Nov-19 05:59N 34°41' E 135°23'0 0.0
2017-Nov-19 05:23N 34°41' E 135°23'0 0.0
2017-Nov-19 04:59N 34°41' E 135°23'4 8.5
2017-Nov-19 04:30N 34°38' E 135°20'815.4
2017-Nov-19 04:00N 34°35' E 135°11'815.9
2017-Nov-19 03:30N 34°36' E 135°02'5 0.1
2017-Nov-17 05:27N 34°37' E 134°55'612.3
2017-Nov-17 05:00N 34°37' E 135°02'713.9
2017-Nov-17 04:31N 34°36' E 135°11'815.5
2017-Nov-17 04:00N 34°39' E 135°19'4 7.9
2017-Nov-17 03:31N 34°41' E 135°23'0 0.0
2017-Nov-17 03:00N 34°41' E 135°23'0 0.0
2017-Nov-17 02:18N 34°41' E 135°23'0 0.0
2017-Nov-17 02:00N 34°41' E 135°23'0 0.0
2017-Nov-17 01:30N 34°41' E 135°23'0 0.1
2017-Nov-17 01:00N 34°41' E 135°23'0 0.1
2017-Nov-17 00:30N 34°41' E 135°23'0 0.0
2017-Nov-17 00:00N 34°41' E 135°23'0 0.1
2017-Nov-16 23:18N 34°41' E 135°23'0 0.1
2017-Nov-16 22:48N 34°41' E 135°23'0 0.9
2017-Nov-16 22:30N 34°41' E 135°23'2 2.7
2017-Nov-16 21:39N 34°40' E 135°21'0 0.0
2017-Nov-16 21:21N 34°40' E 135°21'0 0.0
2017-Nov-16 20:51N 34°40' E 135°21'0 0.0
2017-Nov-16 20:21N 34°40' E 135°21'0 0.0
2017-Nov-16 19:57N 34°40' E 135°21'0 0.0
2017-Nov-16 19:21N 34°40' E 135°21'0 0.0
2017-Nov-16 18:57N 34°40' E 135°21'0 0.0
2017-Nov-16 18:30N 34°40' E 135°21'5 9.7
2017-Nov-16 18:00N 34°37' E 135°16'815.5
2017-Nov-16 17:30N 34°35' E 135°07'916.8
2017-Nov-16 16:59N 34°36' E 134°56'1 0.0
2017-Nov-15 05:23N 34°37' E 134°57'512.6
2017-Nov-15 04:57N 34°37' E 135°03'613.7
2017-Nov-15 04:30N 34°36' E 135°10'714.6
2017-Nov-15 04:00N 34°39' E 135°19'4 7.6
2017-Nov-15 03:26N 34°41' E 135°23'0 0.0
2017-Nov-15 02:50N 34°41' E 135°23'0 0.0
2017-Nov-15 02:26N 34°41' E 135°23'0 0.0
2017-Nov-15 01:56N 34°41' E 135°23'0 0.0
2017-Nov-15 01:26N 34°41' E 135°23'0 0.0
2017-Nov-15 00:56N 34°41' E 135°23'0 0.0
2017-Nov-14 23:50N 34°41' E 135°23'0 0.0
2017-Nov-14 23:20N 34°41' E 135°23'0 0.1
2017-Nov-14 22:53N 34°41' E 135°23'2 5.1
2017-Nov-14 22:25N 34°40' E 135°21'0 0.0
2017-Nov-14 21:55N 34°40' E 135°21'0 0.0
2017-Nov-14 21:25N 34°40' E 135°21'0 0.0
2017-Nov-14 20:43N 34°40' E 135°21'0 0.0
2017-Nov-14 20:25N 34°40' E 135°21'0 0.0
2017-Nov-14 19:43N 34°40' E 135°21'0 0.0
2017-Nov-14 19:25N 34°40' E 135°21'0 0.0
2017-Nov-14 18:55N 34°40' E 135°21'0 0.1
2017-Nov-14 18:30N 34°40' E 135°21'713.1
2017-Nov-14 18:00N 34°36' E 135°15'816.0
2017-Nov-14 17:30N 34°35' E 135°05'815.3
2017-Nov-14 17:00N 34°35' E 134°56'23 0.6
2017-Nov-13 02:00N 34°41' E 135°23'0 0.1
2017-Nov-13 01:30N 34°41' E 135°23'0 0.1
2017-Nov-13 00:48N 34°41' E 135°23'0 0.2
2017-Nov-13 00:30N 34°41' E 135°23'0 0.0
2017-Nov-12 23:42N 34°41' E 135°23'0 0.2
2017-Nov-12 23:30N 34°41' E 135°23'0 0.0
2017-Nov-12 11:36N 34°41' E 135°23'0 0.0
2017-Nov-12 11:30N 34°41' E 135°23'0 0.0
2017-Nov-12 09:36N 34°41' E 135°23'0 0.0
2017-Nov-12 09:30N 34°41' E 135°23'0 0.0
2017-Nov-12 08:06N 34°41' E 135°23'0 0.0
2017-Nov-12 08:00N 34°41' E 135°23'0 0.1
2017-Nov-12 07:30N 34°41' E 135°23'0 0.0
2017-Nov-12 04:00N 34°41' E 135°23'0 0.0
2017-Nov-12 03:30N 34°41' E 135°23'0 0.0
2017-Nov-12 03:00N 34°41' E 135°23'0 0.0
2017-Nov-12 02:18N 34°41' E 135°23'0 0.0
2017-Nov-12 02:00N 34°41' E 135°23'0 0.0
2017-Nov-12 01:30N 34°41' E 135°23'0 0.0
2017-Nov-12 00:42N 34°41' E 135°23'0 0.0
2017-Nov-12 00:30N 34°41' E 135°23'0 0.0
2017-Nov-12 00:00N 34°41' E 135°23'0 0.0
2017-Nov-11 23:30N 34°41' E 135°23'0 0.0
2017-Nov-11 23:00N 34°41' E 135°23'0 0.0
2017-Nov-11 22:30N 34°41' E 135°23'1 2.2
2017-Nov-11 22:00N 34°41' E 135°22'1 2.1
2017-Nov-11 21:19N 34°40' E 135°21'0 0.0
2017-Nov-11 20:55N 34°40' E 135°21'0 0.0
2017-Nov-11 20:25N 34°40' E 135°21'3 7.0
2017-Nov-11 20:00N 34°38' E 135°18'714.5
2017-Nov-11 19:30N 34°35' E 135°10'714.4
2017-Nov-11 19:00N 34°37' E 135°01'4 0.1
2017-Nov-10 04:57N 34°37' E 134°56'817.0
2017-Nov-10 04:30N 34°36' E 135°06'816.0
2017-Nov-10 04:00N 34°37' E 135°15'714.7
2017-Nov-10 03:30N 34°41' E 135°23'0 0.6
2017-Nov-10 03:00N 34°41' E 135°23'0 0.0
2017-Nov-10 01:06N 34°41' E 135°23'0 0.0
2017-Nov-10 01:00N 34°41' E 135°23'0 0.0
2017-Nov-10 00:24N 34°41' E 135°23'  
Track history (hours):
 
Tides and Currents Weather Stations Pressure Air Temp Water Temp Dewpoint Dewpoint Depression Visibility Wind Speed Wind Dir Waves Ship Positions

Daihatsumaru

Last reported at 2017-Nov-20 00:17 UTC. Time now 2017-Nov-23 05:46 UTC.
Position N 34°41' E 135°23'.

Length 106 m; draft 4.5 m.

Type: Cargo ship. MMSI: 431000701.

Date/timePositionNaut miles runAvg speedWind from/ knotsBaromVisibWave heightAir tempDewpointWater temp
2017-Nov-20 00:17N 34°41' E 135°23'0 0.0
2017-Nov-19 23:53N 34°41' E 135°23'0 0.0
2017-Nov-19 23:29N 34°41' E 135°23'0 0.0
2017-Nov-19 22:53N 34°41' E 135°23'0 0.0
2017-Nov-19 22:23N 34°41' E 135°23'0 0.0
2017-Nov-19 21:59N 34°41' E 135°23'0 0.1
2017-Nov-19 21:29N 34°41' E 135°23'0 0.1
2017-Nov-19 20:59N 34°41' E 135°23'0 0.0
2017-Nov-19 20:23N 34°41' E 135°23'0 0.0
2017-Nov-19 19:59N 34°41' E 135°23'0 0.0
2017-Nov-19 19:29N 34°41' E 135°23'0 0.0
2017-Nov-19 18:59N 34°41' E 135°23'0 0.1
2017-Nov-19 18:23N 34°41' E 135°23'0 0.1
2017-Nov-19 17:59N 34°41' E 135°23'0 0.0
2017-Nov-19 17:29N 34°41' E 135°23'0 0.0
2017-Nov-19 16:59N 34°41' E 135°23'0 0.0
2017-Nov-19 16:29N 34°41' E 135°23'0 0.0
2017-Nov-19 15:59N 34°41' E 135°23'0 0.0
2017-Nov-19 15:29N 34°41' E 135°23'0 0.0
2017-Nov-19 14:59N 34°41' E 135°23'0 0.0
2017-Nov-19 14:23N 34°41' E 135°23'0 0.0
2017-Nov-19 13:59N 34°41' E 135°23'0 0.0
2017-Nov-19 13:29N 34°41' E 135°23'0 0.0
2017-Nov-19 12:17N 34°41' E 135°23'0 0.0
2017-Nov-19 11:59N 34°41' E 135°23'0 0.0
2017-Nov-19 11:29N 34°41' E 135°23'0 0.0
2017-Nov-19 10:59N 34°41' E 135°23'0 0.0
2017-Nov-19 10:17N 34°41' E 135°23'0 0.0
2017-Nov-19 09:59N 34°41' E 135°23'0 0.0
2017-Nov-19 09:29N 34°41' E 135°23'0 0.0
2017-Nov-19 08:59N 34°41' E 135°23'0 0.0
2017-Nov-19 07:29N 34°41' E 135°23'0 0.0
2017-Nov-19 06:59N 34°41' E 135°23'0 0.0
2017-Nov-19 06:29N 34°41' E 135°23'0 0.0
2017-Nov-19 05:59N 34°41' E 135°23'0 0.0
2017-Nov-19 05:23N 34°41' E 135°23'0 0.0
2017-Nov-19 04:59N 34°41' E 135°23'4 8.5
2017-Nov-19 04:30N 34°38' E 135°20'815.4
2017-Nov-19 04:00N 34°35' E 135°11'815.9
2017-Nov-19 03:30N 34°36' E 135°02'5 0.1
2017-Nov-17 05:27N 34°37' E 134°55'612.3
2017-Nov-17 05:00N 34°37' E 135°02'713.9
2017-Nov-17 04:31N 34°36' E 135°11'815.5
2017-Nov-17 04:00N 34°39' E 135°19'4 7.9
2017-Nov-17 03:31N 34°41' E 135°23'0 0.0
2017-Nov-17 03:00N 34°41' E 135°23'0 0.0
2017-Nov-17 02:18N 34°41' E 135°23'0 0.0
2017-Nov-17 02:00N 34°41' E 135°23'0 0.0
2017-Nov-17 01:30N 34°41' E 135°23'0 0.1
2017-Nov-17 01:00N 34°41' E 135°23'0 0.1
2017-Nov-17 00:30N 34°41' E 135°23'0 0.0
2017-Nov-17 00:00N 34°41' E 135°23'0 0.1
2017-Nov-16 23:18N 34°41' E 135°23'0 0.1
2017-Nov-16 22:48N 34°41' E 135°23'0 0.9
2017-Nov-16 22:30N 34°41' E 135°23'2 2.7
2017-Nov-16 21:39N 34°40' E 135°21'0 0.0
2017-Nov-16 21:21N 34°40' E 135°21'0 0.0
2017-Nov-16 20:51N 34°40' E 135°21'0 0.0
2017-Nov-16 20:21N 34°40' E 135°21'0 0.0
2017-Nov-16 19:57N 34°40' E 135°21'0 0.0
2017-Nov-16 19:21N 34°40' E 135°21'0 0.0
2017-Nov-16 18:57N 34°40' E 135°21'0 0.0
2017-Nov-16 18:30N 34°40' E 135°21'5 9.7
2017-Nov-16 18:00N 34°37' E 135°16'815.5
2017-Nov-16 17:30N 34°35' E 135°07'916.8
2017-Nov-16 16:59N 34°36' E 134°56'1 0.0
2017-Nov-15 05:23N 34°37' E 134°57'512.6
2017-Nov-15 04:57N 34°37' E 135°03'613.7
2017-Nov-15 04:30N 34°36' E 135°10'714.6
2017-Nov-15 04:00N 34°39' E 135°19'4 7.6
2017-Nov-15 03:26N 34°41' E 135°23'0 0.0
2017-Nov-15 02:50N 34°41' E 135°23'0 0.0
2017-Nov-15 02:26N 34°41' E 135°23'0 0.0
2017-Nov-15 01:56N 34°41' E 135°23'0 0.0
2017-Nov-15 01:26N 34°41' E 135°23'0 0.0
2017-Nov-15 00:56N 34°41' E 135°23'0 0.0
2017-Nov-14 23:50N 34°41' E 135°23'0 0.0
2017-Nov-14 23:20N 34°41' E 135°23'0 0.1
2017-Nov-14 22:53N 34°41' E 135°23'2 5.1
2017-Nov-14 22:25N 34°40' E 135°21'0 0.0
2017-Nov-14 21:55N 34°40' E 135°21'0 0.0
2017-Nov-14 21:25N 34°40' E 135°21'0 0.0
2017-Nov-14 20:43N 34°40' E 135°21'0 0.0
2017-Nov-14 20:25N 34°40' E 135°21'0 0.0
2017-Nov-14 19:43N 34°40' E 135°21'0 0.0
2017-Nov-14 19:25N 34°40' E 135°21'0 0.0
2017-Nov-14 18:55N 34°40' E 135°21'0 0.1
2017-Nov-14 18:30N 34°40' E 135°21'713.1
2017-Nov-14 18:00N 34°36' E 135°15'816.0
2017-Nov-14 17:30N 34°35' E 135°05'815.3
2017-Nov-14 17:00N 34°35' E 134°56'23 0.6
2017-Nov-13 02:00N 34°41' E 135°23'0 0.1
2017-Nov-13 01:30N 34°41' E 135°23'0 0.1
2017-Nov-13 00:48N 34°41' E 135°23'0 0.2
2017-Nov-13 00:30N 34°41' E 135°23'0 0.0
2017-Nov-12 23:42N 34°41' E 135°23'0 0.2
2017-Nov-12 23:30N 34°41' E 135°23'0 0.0
2017-Nov-12 11:36N 34°41' E 135°23'0 0.0
2017-Nov-12 11:30N 34°41' E 135°23'0 0.0
2017-Nov-12 09:36N 34°41' E 135°23'0 0.0
2017-Nov-12 09:30N 34°41' E 135°23'0 0.0
2017-Nov-12 08:06N 34°41' E 135°23'0 0.0
2017-Nov-12 08:00N 34°41' E 135°23'0 0.1
2017-Nov-12 07:30N 34°41' E 135°23'0 0.0
2017-Nov-12 04:00N 34°41' E 135°23'0 0.0
2017-Nov-12 03:30N 34°41' E 135°23'0 0.0
2017-Nov-12 03:00N 34°41' E 135°23'0 0.0
2017-Nov-12 02:18N 34°41' E 135°23'0 0.0
2017-Nov-12 02:00N 34°41' E 135°23'0 0.0
2017-Nov-12 01:30N 34°41' E 135°23'0 0.0
2017-Nov-12 00:42N 34°41' E 135°23'0 0.0
2017-Nov-12 00:30N 34°41' E 135°23'0 0.0
2017-Nov-12 00:00N 34°41' E 135°23'0 0.0
2017-Nov-11 23:30N 34°41' E 135°23'0 0.0
2017-Nov-11 23:00N 34°41' E 135°23'0 0.0
2017-Nov-11 22:30N 34°41' E 135°23'1 2.2
2017-Nov-11 22:00N 34°41' E 135°22'1 2.1
2017-Nov-11 21:19N 34°40' E 135°21'0 0.0
2017-Nov-11 20:55N 34°40' E 135°21'0 0.0
2017-Nov-11 20:25N 34°40' E 135°21'3 7.0
2017-Nov-11 20:00N 34°38' E 135°18'714.5
2017-Nov-11 19:30N 34°35' E 135°10'714.4
2017-Nov-11 19:00N 34°37' E 135°01'4 0.1
2017-Nov-10 04:57N 34°37' E 134°56'817.0
2017-Nov-10 04:30N 34°36' E 135°06'816.0
2017-Nov-10 04:00N 34°37' E 135°15'714.7
2017-Nov-10 03:30N 34°41' E 135°23'0 0.6
2017-Nov-10 03:00N 34°41' E 135°23'0 0.0
2017-Nov-10 01:06N 34°41' E 135°23'0 0.0
2017-Nov-10 01:00N 34°41' E 135°23'0 0.0
2017-Nov-10 00:24N 34°41' E 135°23'  

Dump ship's entire track history